createdAt,value
2018-04-23T16:54:02.076Z,16.80
2018-04-23T16:56:29.501Z,16.80
2018-04-23T16:58:57.708Z,16.70
2018-04-23T17:01:25.164Z,16.70
2018-04-23T17:03:52.608Z,16.80
2018-04-23T17:06:20.043Z,16.60
2018-04-23T17:08:48.260Z,16.60
2018-04-23T17:11:16.729Z,16.70
2018-04-23T17:13:44.289Z,16.70
2018-04-23T17:16:11.708Z,16.70
2018-04-23T17:18:39.920Z,16.60
2018-04-23T17:21:07.375Z,16.50
2018-04-23T17:23:34.812Z,16.60
2018-04-23T17:26:02.252Z,16.60
2018-04-23T17:28:30.475Z,16.50
2018-04-23T17:30:57.907Z,16.50
2018-04-23T17:33:26.717Z,16.40
2018-04-23T17:35:54.155Z,16.40
2018-04-23T17:38:21.580Z,16.40
2018-04-23T17:40:49.815Z,16.50
2018-04-23T17:43:17.277Z,16.50
2018-04-23T17:45:44.719Z,16.40
2018-04-23T17:48:12.156Z,16.40
2018-04-23T17:50:39.613Z,16.40
2018-04-23T17:53:07.810Z,16.50
2018-04-23T17:55:35.924Z,16.50
2018-04-23T17:58:03.367Z,16.40
2018-04-23T18:00:30.816Z,16.40
2018-04-23T18:02:58.254Z,16.40
2018-04-23T18:05:25.966Z,16.40
2018-04-23T18:07:53.405Z,16.40
2018-04-23T18:10:20.865Z,16.40
2018-04-23T18:12:48.311Z,16.40
2018-04-23T18:15:15.774Z,16.30
2018-04-23T18:17:43.215Z,16.30
2018-04-23T18:20:10.645Z,16.30
2018-04-23T18:22:38.088Z,16.30
2018-04-23T18:25:06.304Z,16.30
2018-04-23T18:27:33.732Z,16.30
2018-04-23T18:30:01.177Z,16.20
2018-04-23T18:32:29.372Z,16.20
2018-04-23T18:34:56.835Z,16.20
2018-04-23T18:37:34.112Z,16.20
2018-04-23T18:40:01.684Z,16.20
2018-04-23T18:42:29.141Z,16.20
2018-04-23T18:44:56.603Z,16.20
2018-04-23T18:47:24.042Z,16.20
2018-04-23T18:49:51.512Z,16.20
2018-04-23T18:52:18.971Z,16.20
2018-04-23T18:54:46.420Z,16.20
2018-04-23T18:57:13.879Z,16.10
2018-04-23T18:59:41.327Z,16.00
2018-04-23T19:02:08.800Z,15.90
2018-04-23T19:04:36.254Z,15.90
2018-04-23T19:07:03.723Z,15.90
2018-04-23T19:09:31.166Z,15.80
2018-04-23T19:11:58.644Z,15.80
2018-04-23T19:14:26.088Z,15.80
2018-04-23T19:16:53.560Z,15.60
2018-04-23T19:19:21.800Z,15.50
2018-04-23T19:21:50.086Z,15.60
2018-04-23T19:24:18.803Z,15.60
2018-04-23T19:26:46.262Z,15.60
2018-04-23T19:29:14.559Z,15.50
2018-04-23T19:31:42.794Z,15.50
2018-04-23T19:34:10.264Z,15.50
2018-04-23T19:36:37.727Z,15.50
2018-04-23T19:39:06.121Z,15.60
2018-04-23T19:41:33.578Z,15.50
2018-04-23T19:44:01.026Z,15.60
2018-04-23T19:46:28.863Z,15.50
2018-04-23T19:48:56.359Z,15.50
2018-04-23T19:51:23.840Z,15.60
2018-04-23T19:53:52.048Z,15.60
2018-04-23T19:56:19.500Z,15.60
2018-04-23T19:58:46.964Z,15.60
2018-04-23T20:01:14.426Z,15.50
2018-04-23T20:03:41.877Z,15.50
2018-04-23T20:06:09.337Z,15.40
2018-04-23T20:08:36.784Z,15.30
2018-04-23T20:11:04.930Z,15.20
2018-04-23T20:13:33.164Z,15.20
2018-04-23T20:16:00.603Z,15.10
2018-04-23T20:18:28.071Z,15.10
2018-04-23T20:20:55.872Z,15.00
2018-04-23T20:23:23.431Z,15.00
2018-04-23T20:25:50.790Z,15.00
2018-04-23T20:28:18.260Z,14.80
2018-04-23T20:30:46.491Z,14.80
2018-04-23T20:33:13.953Z,14.80
2018-04-23T20:35:41.406Z,14.90
2018-04-23T20:38:08.880Z,14.80
2018-04-23T20:40:36.333Z,14.60
2018-04-23T20:43:03.862Z,14.70
2018-04-23T20:45:31.324Z,14.70
2018-04-23T20:47:58.930Z,14.70
2018-04-23T20:50:26.362Z,14.60
2018-04-23T20:52:53.851Z,14.70
2018-04-23T20:55:22.099Z,14.60
2018-04-23T20:57:49.631Z,14.60
2018-04-23T21:00:17.091Z,14.60
2018-04-23T21:02:44.556Z,14.40
2018-04-23T21:05:12.066Z,14.40
2018-04-23T21:07:40.292Z,14.60
2018-04-23T21:10:07.746Z,14.60
2018-04-23T21:12:35.197Z,14.60
2018-04-23T21:15:02.656Z,14.70
2018-04-23T21:17:30.134Z,14.70
2018-04-23T21:19:57.599Z,14.70
2018-04-23T21:22:25.131Z,14.60
2018-04-23T21:24:52.485Z,14.60
2018-04-23T21:27:19.923Z,14.50
2018-04-23T21:29:47.378Z,14.40
2018-04-23T21:32:14.804Z,14.30
2018-04-23T21:34:42.251Z,14.40
2018-04-23T21:37:09.687Z,14.30
2018-04-23T21:39:37.135Z,14.40
2018-04-23T21:42:04.562Z,14.20
2018-04-23T21:44:32.004Z,14.30
2018-04-23T21:47:00.208Z,14.30
2018-04-23T21:49:27.645Z,14.30
2018-04-23T21:51:55.094Z,14.30
2018-04-23T21:54:23.315Z,14.30
2018-04-23T21:56:50.759Z,14.30
2018-04-23T21:59:18.199Z,14.10
2018-04-23T22:01:45.657Z,14.10
2018-04-23T22:04:13.110Z,14.20
2018-04-23T22:06:41.307Z,14.00
2018-04-23T22:09:08.759Z,14.00
2018-04-23T22:11:36.195Z,14.20
2018-04-23T22:14:04.415Z,14.10
2018-04-23T22:16:31.859Z,14.10
2018-04-23T22:18:59.311Z,14.10
2018-04-23T22:21:26.753Z,14.00
2018-04-23T22:23:54.186Z,14.00
2018-04-23T22:26:22.388Z,14.00
2018-04-23T22:28:49.852Z,14.00
2018-04-23T22:31:17.288Z,13.90
2018-04-23T22:33:45.484Z,14.00
2018-04-23T22:36:12.935Z,13.90
2018-04-23T22:38:40.375Z,13.90
2018-04-23T22:41:07.836Z,13.80
2018-04-23T22:43:36.020Z,13.80
2018-04-23T22:46:03.473Z,13.70
2018-04-23T22:48:30.906Z,13.70
2018-04-23T22:50:59.415Z,14.00
2018-04-23T22:53:26.845Z,13.90
2018-04-23T22:55:55.064Z,13.80
2018-04-23T22:58:22.558Z,13.80
2018-04-23T23:00:49.967Z,13.80
2018-04-23T23:03:17.412Z,13.80
2018-04-23T23:05:45.626Z,13.70
2018-04-23T23:08:13.078Z,13.70
2018-04-23T23:10:40.526Z,13.80
2018-04-23T23:13:09.391Z,13.90
2018-04-23T23:15:36.865Z,13.90
2018-04-23T23:18:04.303Z,13.80
2018-04-23T23:20:31.751Z,13.90
2018-04-23T23:22:59.959Z,13.70
2018-04-23T23:25:27.417Z,13.70
2018-04-23T23:27:54.860Z,13.60
2018-04-23T23:30:22.300Z,13.70
2018-04-23T23:32:50.519Z,13.80
2018-04-23T23:35:18.484Z,13.70
2018-04-23T23:37:45.922Z,13.70
2018-04-23T23:40:13.370Z,13.60
2018-04-23T23:42:40.837Z,13.50
2018-04-23T23:45:08.296Z,13.40
2018-04-23T23:47:35.736Z,13.30
2018-04-23T23:50:03.201Z,13.20
2018-04-23T23:52:30.636Z,13.30
2018-04-23T23:54:58.892Z,13.40
2018-04-23T23:57:26.339Z,13.40
2018-04-23T23:59:53.805Z,13.50
